Time;durP1;ratioP1;P1;durP2;ratioP2;P2;SDS_P1;SDS_P2;PMS_P1;PMS_P2;Temp;Humidity;BMP_temperature;BMP_pressure;BME280_temperature;BME280_humidity;BME280_pressure;Samples;Min_cycle;Max_cycle;Signal;HPM_P1;HPM_P2
2024/01/03 00:00:34;;;;;;;4.45;1.05;;;10.30;99.90;;;;;;5017823;28;20484;-54
2024/01/03 00:03:00;;;;;;;9.60;1.77;;;10.30;99.90;;;;;;5022328;28;20083;-56
2024/01/03 00:05:36;;;;;;;6.82;1.42;;;10.30;99.90;;;;;;5025435;28;20038;-53
2024/01/03 00:08:02;;;;;;;5.13;1.02;;;10.40;99.90;;;;;;5020421;28;20021;-53
2024/01/03 00:10:47;;;;;;;4.55;1.02;;;10.40;99.90;;;;;;5029265;28;20030;-51
2024/01/03 00:13:31;;;;;;;8.70;1.02;;;10.40;99.90;;;;;;5022275;28;20483;-54
2024/01/03 00:16:09;;;;;;;8.82;1.50;;;10.50;99.90;;;;;;5024636;28;20583;-54
2024/01/03 00:18:35;;;;;;;10.13;1.02;;;10.50;99.90;;;;;;5021531;28;20034;-55
2024/01/03 00:21:02;;;;;;;8.77;1.27;;;10.40;99.90;;;;;;5025112;28;20023;-53
2024/01/03 00:23:43;;;;;;;5.97;0.88;;;10.40;99.90;;;;;;5020825;28;20488;-56
2024/01/03 00:26:10;;;;;;;4.43;0.73;;;10.40;99.90;;;;;;4996359;28;20115;-51
2024/01/03 00:28:36;;;;;;;16.05;1.20;;;10.40;99.90;;;;;;5023603;28;20033;-56
2024/01/03 00:31:02;;;;;;;9.30;1.42;;;10.30;99.90;;;;;;5012653;28;20064;-58
2024/01/03 00:33:28;;;;;;;3.33;0.90;;;10.30;99.90;;;;;;5022837;28;20033;-51
2024/01/03 00:35:54;;;;;;;5.28;0.93;;;10.30;99.90;;;;;;5008804;28;20040;-53
2024/01/03 00:38:20;;;;;;;3.95;0.75;;;10.30;99.90;;;;;;5027280;28;20071;-57
2024/01/03 00:40:48;;;;;;;5.85;1.50;;;10.30;99.90;;;;;;5025375;28;20510;-51
2024/01/03 00:43:14;;;;;;;4.18;1.10;;;10.20;99.90;;;;;;5027614;28;20029;-53
2024/01/03 00:45:40;;;;;;;11.57;2.00;;;10.20;99.90;;;;;;5024201;28;20530;-51
2024/01/03 00:48:06;;;;;;;1.25;0.68;;;10.20;99.90;;;;;;5023726;28;20040;-52
2024/01/03 00:50:32;;;;;;;6.03;1.20;;;10.20;99.90;;;;;;5026512;28;20557;-54
2024/01/03 00:52:57;;;;;;;4.53;1.13;;;10.20;99.90;;;;;;5024460;28;20033;-54
2024/01/03 00:55:23;;;;;;;10.30;1.10;;;10.20;99.90;;;;;;5019704;28;20088;-53
2024/01/03 00:57:49;;;;;;;4.75;1.02;;;10.20;99.90;;;;;;5003806;28;20045;-53
2024/01/03 01:00:15;;;;;;;8.13;1.13;;;10.10;99.90;;;;;;5025383;28;20302;-57
2024/01/03 01:02:40;;;;;;;6.55;0.93;;;10.10;99.90;;;;;;5021948;28;20025;-51
2024/01/03 01:05:06;;;;;;;5.07;0.70;;;10.10;99.90;;;;;;5028447;28;20037;-52
2024/01/03 01:07:32;;;;;;;5.05;1.60;;;10.10;99.90;;;;;;5025690;28;20080;-54
2024/01/03 01:09:57;;;;;;;3.35;1.05;;;10.10;99.90;;;;;;5023879;28;20548;-54
2024/01/03 01:12:23;;;;;;;2.35;0.82;;;10.10;99.90;;;;;;5026319;28;20057;-55
2024/01/03 01:14:49;;;;;;;4.00;0.60;;;10.10;99.90;;;;;;5028256;28;20491;-53
2024/01/03 01:17:14;;;;;;;4.40;0.82;;;10.10;99.90;;;;;;5013577;28;20026;-55
2024/01/03 01:19:40;;;;;;;3.13;0.60;;;10.20;99.90;;;;;;5029793;28;20033;-52
2024/01/03 01:22:06;;;;;;;7.18;0.60;;;10.20;99.90;;;;;;5025651;28;20038;-58
2024/01/03 01:24:31;;;;;;;3.38;0.57;;;10.20;99.90;;;;;;5022124;28;20545;-54
2024/01/03 01:26:57;;;;;;;1.52;0.35;;;10.20;99.90;;;;;;5032564;28;20053;-56
2024/01/03 01:29:22;;;;;;;3.05;0.85;;;10.20;99.90;;;;;;5030947;28;20025;-55
2024/01/03 01:31:48;;;;;;;3.00;0.80;;;10.20;99.90;;;;;;5031919;28;21687;-55
2024/01/03 01:34:14;;;;;;;3.95;0.98;;;10.20;99.90;;;;;;5032654;28;20063;-52
2024/01/03 01:36:40;;;;;;;6.95;0.77;;;10.10;99.90;;;;;;5032415;28;20052;-56
2024/01/03 01:39:05;;;;;;;1.67;0.47;;;10.10;99.90;;;;;;5031401;28;20398;-51
2024/01/03 01:41:31;;;;;;;5.82;0.80;;;10.10;99.90;;;;;;5024873;28;20104;-53
2024/01/03 01:43:57;;;;;;;4.47;0.77;;;10.10;99.90;;;;;;5027657;28;20068;-55
2024/01/03 01:46:23;;;;;;;4.78;0.63;;;10.20;99.90;;;;;;5027797;28;20061;-51
2024/01/03 01:48:50;;;;;;;3.35;0.50;;;10.20;99.90;;;;;;5031193;28;20108;-56
2024/01/03 01:51:16;;;;;;;2.85;0.40;;;10.10;99.90;;;;;;5025269;28;20468;-51
2024/01/03 01:53:42;;;;;;;4.60;1.05;;;10.10;99.90;;;;;;5025357;28;20030;-51
2024/01/03 01:56:10;;;;;;;5.88;0.90;;;10.10;99.90;;;;;;5031474;28;20033;-49
2024/01/03 01:58:38;;;;;;;2.65;0.55;;;10.10;99.90;;;;;;5004456;28;20076;-51
2024/01/03 02:01:05;;;;;;;2.30;0.88;;;10.00;99.90;;;;;;5031681;28;20030;-55
2024/01/03 02:03:31;;;;;;;5.65;0.50;;;10.00;99.90;;;;;;5029381;28;20526;-51
2024/01/03 02:05:57;;;;;;;2.38;0.50;;;10.00;99.90;;;;;;5028838;28;20116;-52
2024/01/03 02:08:24;;;;;;;1.50;0.50;;;10.00;99.90;;;;;;5025717;28;20025;-52
2024/01/03 02:10:51;;;;;;;3.67;0.50;;;10.00;99.90;;;;;;5028767;28;20025;-51
2024/01/03 02:13:16;;;;;;;2.08;0.47;;;10.00;99.90;;;;;;5029509;28;20159;-53
2024/01/03 02:15:42;;;;;;;0.55;0.28;;;9.90;99.90;;;;;;5027803;28;20113;-51
2024/01/03 02:18:08;;;;;;;1.88;0.47;;;9.90;99.90;;;;;;5030764;28;20033;-53
2024/01/03 02:20:36;;;;;;;1.67;0.30;;;9.80;99.90;;;;;;5026419;28;20059;-50
2024/01/03 02:23:02;;;;;;;3.22;0.75;;;9.70;99.90;;;;;;5030765;28;20034;-52
2024/01/03 02:25:27;;;;;;;2.47;0.45;;;9.70;99.90;;;;;;5022834;28;20026;-52
2024/01/03 02:27:53;;;;;;;5.15;0.98;;;9.70;99.90;;;;;;5026409;28;20138;-48
2024/01/03 02:30:18;;;;;;;3.97;0.70;;;9.70;99.90;;;;;;5027407;28;20045;-53
2024/01/03 02:32:44;;;;;;;4.85;0.63;;;9.60;99.90;;;;;;5026165;28;20072;-52
2024/01/03 02:35:10;;;;;;;7.40;0.77;;;9.60;99.90;;;;;;5007456;28;20025;-55
2024/01/03 02:37:36;;;;;;;3.08;0.63;;;9.60;99.90;;;;;;5026038;28;20041;-54
2024/01/03 02:40:01;;;;;;;4.45;0.75;;;9.50;99.90;;;;;;5027362;28;20083;-51
2024/01/03 02:42:27;;;;;;;0.57;0.30;;;9.50;99.90;;;;;;5026200;28;20026;-54
2024/01/03 02:44:53;;;;;;;2.65;0.85;;;9.50;99.90;;;;;;5028502;28;20031;-54
2024/01/03 02:47:18;;;;;;;3.88;0.80;;;9.50;99.90;;;;;;5025471;28;20364;-50
2024/01/03 02:49:44;;;;;;;4.30;0.50;;;9.50;99.90;;;;;;5020360;28;20131;-49
2024/01/03 02:52:09;;;;;;;3.50;0.63;;;9.50;99.90;;;;;;5026807;28;20025;-52
2024/01/03 02:54:35;;;;;;;2.25;0.45;;;9.40;99.90;;;;;;5027231;28;20039;-52
2024/01/03 02:57:00;;;;;;;6.00;0.95;;;9.40;99.90;;;;;;5026341;28;20105;-52
2024/01/03 02:59:26;;;;;;;5.25;0.75;;;9.50;99.90;;;;;;4999639;28;20045;-49
2024/01/03 03:01:52;;;;;;;2.30;0.60;;;9.50;99.90;;;;;;5027652;28;20037;-56
2024/01/03 03:04:17;;;;;;;1.40;0.65;;;9.50;99.90;;;;;;5004740;28;20030;-49
2024/01/03 03:06:43;;;;;;;6.60;0.90;;;9.50;99.90;;;;;;5020007;28;20025;-50
2024/01/03 03:09:08;;;;;;;3.78;0.73;;;9.50;99.90;;;;;;5023576;28;20033;-50
2024/01/03 03:11:34;;;;;;;3.80;0.70;;;9.50;99.90;;;;;;5012413;28;20018;-53
2024/01/03 03:14:00;;;;;;;3.58;0.65;;;9.60;99.90;;;;;;5025679;28;20034;-49
2024/01/03 03:16:25;;;;;;;2.80;0.68;;;9.60;99.90;;;;;;5028178;28;20399;-50
2024/01/03 03:18:51;;;;;;;5.68;0.68;;;9.60;99.90;;;;;;5024089;28;20079;-52
2024/01/03 03:21:17;;;;;;;4.47;1.05;;;9.60;99.90;;;;;;5025712;28;20025;-57
2024/01/03 03:23:42;;;;;;;5.38;1.02;;;9.70;99.90;;;;;;5025437;28;20426;-50
2024/01/03 03:26:10;;;;;;;4.03;0.82;;;9.70;99.90;;;;;;5027491;28;20024;-50
2024/01/03 03:28:36;;;;;;;2.22;0.50;;;9.70;99.90;;;;;;5028013;28;20091;-50
2024/01/03 03:31:03;;;;;;;1.13;0.40;;;9.70;99.90;;;;;;5006358;28;20038;-52
2024/01/03 03:33:31;;;;;;;3.25;0.60;;;9.70;99.90;;;;;;5025051;28;20116;-50
2024/01/03 03:35:56;;;;;;;3.50;0.50;;;9.70;99.90;;;;;;5029426;28;20116;-53
2024/01/03 03:38:22;;;;;;;7.30;0.63;;;9.60;99.90;;;;;;5026516;28;20120;-52
2024/01/03 03:40:48;;;;;;;4.40;0.70;;;9.60;99.90;;;;;;5008485;28;20405;-51
2024/01/03 03:43:13;;;;;;;2.72;0.60;;;9.50;99.90;;;;;;5025897;28;20025;-50
2024/01/03 03:45:39;;;;;;;1.98;0.73;;;9.40;99.90;;;;;;5025174;28;20021;-57
2024/01/03 03:48:05;;;;;;;7.20;0.70;;;9.30;99.90;;;;;;5024448;28;20025;-49
2024/01/03 03:50:30;;;;;;;5.03;0.75;;;9.20;99.90;;;;;;5027294;28;20075;-49
2024/01/03 03:52:56;;;;;;;6.13;0.60;;;9.20;99.90;;;;;;5030201;28;20041;-51
2024/01/03 03:55:22;;;;;;;5.78;0.73;;;9.20;99.90;;;;;;5024059;28;20598;-49
2024/01/03 03:57:48;;;;;;;6.72;0.98;;;9.20;99.90;;;;;;5026931;28;20061;-50
2024/01/03 04:00:14;;;;;;;4.55;0.70;;;9.20;99.90;;;;;;4989883;28;20084;-49
2024/01/03 04:02:39;;;;;;;5.45;0.90;;;9.20;99.90;;;;;;5008575;28;20038;-55
2024/01/03 04:05:06;;;;;;;5.22;1.15;;;9.30;99.90;;;;;;5010266;28;20034;-50
2024/01/03 04:07:31;;;;;;;4.95;1.02;;;9.30;99.90;;;;;;5009072;28;20084;-49
2024/01/03 04:09:57;;;;;;;5.80;1.13;;;9.30;99.90;;;;;;5009585;28;20045;-53
2024/01/03 04:12:23;;;;;;;5.70;0.95;;;9.20;99.90;;;;;;5007238;28;20029;-51
2024/01/03 04:14:49;;;;;;;9.02;1.23;;;9.20;99.90;;;;;;5003944;28;20034;-53
2024/01/03 04:17:15;;;;;;;7.68;1.02;;;9.20;99.90;;;;;;5004654;28;20029;-49
2024/01/03 04:19:41;;;;;;;6.47;1.00;;;9.20;99.90;;;;;;5004817;28;20031;-52
2024/01/03 04:22:07;;;;;;;7.65;2.20;;;9.20;99.90;;;;;;5007739;28;20116;-51
2024/01/03 04:24:33;;;;;;;6.32;0.82;;;9.30;99.90;;;;;;5003347;28;20061;-50
2024/01/03 04:26:58;;;;;;;3.70;0.98;;;9.30;99.90;;;;;;5009472;28;20029;-49
2024/01/03 04:29:24;;;;;;;4.95;0.95;;;9.30;99.90;;;;;;5007137;28;20109;-50
2024/01/03 04:31:49;;;;;;;9.73;1.80;;;9.40;99.90;;;;;;5003950;28;20027;-55
2024/01/03 04:34:15;;;;;;;7.85;0.90;;;9.40;99.90;;;;;;5005432;28;20516;-54
2024/01/03 04:36:40;;;;;;;11.13;1.92;;;9.50;99.90;;;;;;5004010;28;20093;-53
2024/01/03 04:39:06;;;;;;;8.45;1.35;;;9.40;99.90;;;;;;5008194;28;20037;-51
2024/01/03 04:41:32;;;;;;;8.70;1.20;;;9.40;99.90;;;;;;5008196;28;20030;-52
2024/01/03 04:43:58;;;;;;;5.65;0.73;;;9.50;99.90;;;;;;5006418;28;20052;-50
2024/01/03 04:46:24;;;;;;;8.00;1.48;;;9.50;99.90;;;;;;5042893;23;20050;-89
2024/01/03 04:48:49;;;;;;;4.82;0.80;;;9.50;99.90;;;;;;5023810;22;20487;-57
2024/01/03 04:51:15;;;;;;;9.68;1.95;;;9.40;99.90;;;;;;4995740;28;20059;-58
2024/01/03 04:53:41;;;;;;;8.20;1.30;;;9.40;99.90;;;;;;5001844;28;20041;-56
2024/01/03 04:56:07;;;;;;;2.65;0.77;;;9.40;99.90;;;;;;4983134;28;20030;-56
2024/01/03 04:58:33;;;;;;;5.55;1.00;;;9.40;99.90;;;;;;4985553;28;20101;-57
2024/01/03 05:00:58;;;;;;;4.68;1.08;;;9.40;99.90;;;;;;4939984;28;20395;-57
2024/01/03 05:03:24;;;;;;;6.47;0.90;;;9.50;99.90;;;;;;4961775;28;20141;-58
2024/01/03 05:05:49;;;;;;;6.75;1.50;;;9.50;99.90;;;;;;4944024;28;20027;-54
2024/01/03 05:08:15;;;;;;;2.80;0.90;;;9.50;99.90;;;;;;4960124;28;20035;-55
2024/01/03 05:10:41;;;;;;;4.38;1.25;;;9.50;99.90;;;;;;4956543;28;20020;-53
2024/01/03 05:13:07;;;;;;;3.60;0.70;;;9.50;99.90;;;;;;4965454;28;20031;-53
2024/01/03 05:15:33;;;;;;;8.45;1.50;;;9.50;99.90;;;;;;4959055;28;20031;-54
2024/01/03 05:17:58;;;;;;;9.63;1.10;;;9.50;99.90;;;;;;4961807;28;20027;-57
2024/01/03 05:20:24;;;;;;;4.68;1.27;;;9.50;99.90;;;;;;4959872;28;20038;-54
2024/01/03 05:22:49;;;;;;;8.23;1.20;;;9.50;99.90;;;;;;4966551;28;20031;-53
2024/01/03 05:25:15;;;;;;;7.53;1.05;;;9.50;99.90;;;;;;4964913;28;20484;-54
2024/01/03 05:27:41;;;;;;;4.25;1.27;;;9.50;99.90;;;;;;4959244;28;20027;-56
2024/01/03 05:30:07;;;;;;;9.93;1.80;;;9.50;99.90;;;;;;4955694;28;20031;-58
2024/01/03 05:32:32;;;;;;;9.88;1.27;;;9.60;99.90;;;;;;4953631;28;20023;-58
2024/01/03 05:34:58;;;;;;;6.55;1.38;;;9.60;99.90;;;;;;4962968;28;20028;-56
2024/01/03 05:37:23;;;;;;;7.15;1.45;;;9.60;99.90;;;;;;4962844;28;20019;-56
2024/01/03 05:39:49;;;;;;;6.97;0.98;;;9.60;99.90;;;;;;4960148;28;20086;-57
2024/01/03 05:42:15;;;;;;;6.30;1.23;;;9.60;99.90;;;;;;4961960;28;20022;-59
2024/01/03 05:44:40;;;;;;;6.10;1.02;;;9.50;99.90;;;;;;4957089;28;20082;-56
2024/01/03 05:47:06;;;;;;;4.35;0.60;;;9.60;99.90;;;;;;4963902;28;20054;-53
2024/01/03 05:49:31;;;;;;;3.17;0.90;;;9.50;99.90;;;;;;4957651;28;20118;-56
2024/01/03 05:51:59;;;;;;;4.65;0.57;;;9.50;99.90;;;;;;4965428;28;20369;-55
2024/01/03 05:54:24;;;;;;;3.03;1.02;;;9.50;99.90;;;;;;4961179;28;20058;-53
2024/01/03 05:56:50;;;;;;;4.45;0.68;;;9.40;99.90;;;;;;4965263;28;20630;-55
2024/01/03 05:59:16;;;;;;;6.20;0.70;;;9.50;99.90;;;;;;4937658;28;20044;-54
2024/01/03 06:01:41;;;;;;;2.67;0.65;;;9.40;99.90;;;;;;4980715;28;20026;-58
2024/01/03 06:04:07;;;;;;;1.90;0.63;;;9.40;99.90;;;;;;4983341;28;20031;-55
2024/01/03 06:06:33;;;;;;;4.82;1.20;;;9.40;99.90;;;;;;4984372;28;20036;-57
2024/01/03 06:08:58;;;;;;;3.85;0.57;;;9.40;99.90;;;;;;4988039;28;20082;-53
2024/01/03 06:11:24;;;;;;;8.80;1.35;;;9.30;99.90;;;;;;4983602;28;20035;-57
2024/01/03 06:13:51;;;;;;;6.47;1.70;;;9.30;99.90;;;;;;4977172;28;20816;-56
2024/01/03 06:16:17;;;;;;;1.52;0.68;;;9.30;99.90;;;;;;4979571;28;20109;-58
2024/01/03 06:18:42;;;;;;;5.05;0.65;;;9.30;99.90;;;;;;4980004;28;20038;-58
2024/01/03 06:21:11;;;;;;;8.88;0.82;;;9.20;99.90;;;;;;4980090;28;20468;-55
2024/01/03 06:23:38;;;;;;;7.43;0.90;;;9.20;99.90;;;;;;4980275;28;20046;-56
2024/01/03 06:26:06;;;;;;;8.15;1.33;;;9.10;99.90;;;;;;4980705;28;20117;-56
2024/01/03 06:28:32;;;;;;;8.05;1.85;;;9.10;99.90;;;;;;4983990;28;20026;-53
2024/01/03 06:30:57;;;;;;;4.60;1.83;;;9.20;99.90;;;;;;4970430;28;20041;-56
2024/01/03 06:33:23;;;;;;;4.15;0.93;;;9.10;99.90;;;;;;4968191;28;20564;-57
2024/01/03 06:35:48;;;;;;;6.85;1.10;;;9.10;99.90;;;;;;4975669;28;20030;-56
2024/01/03 06:38:14;;;;;;;5.53;1.17;;;9.20;99.90;;;;;;4967002;28;20037;-54
2024/01/03 06:40:40;;;;;;;3.22;1.15;;;9.20;99.90;;;;;;4977788;28;20471;-55
2024/01/03 06:43:06;;;;;;;5.90;1.30;;;9.20;99.90;;;;;;4971998;28;20038;-57
2024/01/03 06:45:32;;;;;;;9.50;1.90;;;9.20;99.90;;;;;;4965128;28;20019;-58
2024/01/03 06:47:57;;;;;;;7.15;1.30;;;9.20;99.90;;;;;;4976368;28;20027;-56
2024/01/03 06:50:23;;;;;;;11.25;1.52;;;9.30;99.90;;;;;;4968420;28;20018;-56
2024/01/03 06:52:48;;;;;;;9.48;1.88;;;9.30;99.90;;;;;;4968963;28;20114;-56
2024/01/03 06:55:14;;;;;;;7.53;1.02;;;9.30;99.90;;;;;;4976186;28;20037;-56
2024/01/03 06:57:41;;;;;;;11.77;1.75;;;9.30;99.90;;;;;;4971468;28;20534;-59
2024/01/03 07:00:07;;;;;;;6.35;1.13;;;9.30;99.90;;;;;;4953206;28;20189;-57
2024/01/03 07:02:33;;;;;;;14.45;1.63;;;9.40;99.90;;;;;;4970121;28;20109;-58
2024/01/03 07:04:59;;;;;;;8.13;1.33;;;9.40;99.90;;;;;;4974719;28;20027;-56
2024/01/03 07:07:24;;;;;;;8.35;1.58;;;9.30;99.90;;;;;;4981813;28;20026;-56
2024/01/03 07:09:50;;;;;;;7.78;1.60;;;9.30;99.90;;;;;;4968383;28;20061;-55
2024/01/03 07:12:15;;;;;;;19.02;2.65;;;9.40;99.90;;;;;;4967940;28;20027;-55
2024/01/03 07:14:41;;;;;;;10.88;3.33;;;9.50;99.90;;;;;;4975669;28;20046;-55
2024/01/03 07:17:07;;;;;;;9.00;1.90;;;9.40;99.90;;;;;;4972769;28;20052;-57
2024/01/03 07:19:32;;;;;;;15.88;2.60;;;9.40;99.90;;;;;;4978864;28;20089;-56
2024/01/03 07:21:58;;;;;;;10.30;1.98;;;9.40;99.90;;;;;;4969105;28;20068;-56
2024/01/03 07:24:24;;;;;;;16.60;3.38;;;9.40;99.90;;;;;;4972409;28;20067;-57
2024/01/03 07:26:49;;;;;;;9.38;3.13;;;9.40;99.90;;;;;;4983386;28;20515;-57
2024/01/03 07:29:15;;;;;;;15.93;3.90;;;9.40;99.90;;;;;;4983409;28;20097;-56
2024/01/03 07:31:40;;;;;;;11.45;5.15;;;9.40;99.90;;;;;;4965585;28;20091;-59
2024/01/03 07:34:06;;;;;;;11.13;2.75;;;9.50;99.90;;;;;;4978075;28;20030;-54
2024/01/03 07:36:32;;;;;;;12.40;3.40;;;9.50;99.90;;;;;;4965693;28;20026;-53
2024/01/03 07:39:00;;;;;;;10.93;3.13;;;9.50;99.90;;;;;;4975990;28;20101;-57
2024/01/03 07:41:26;;;;;;;6.88;2.97;;;9.60;99.90;;;;;;4980784;28;20026;-56
2024/01/03 07:43:51;;;;;;;9.23;2.20;;;9.50;99.90;;;;;;4976769;28;20074;-56
2024/01/03 07:46:17;;;;;;;10.25;2.67;;;9.50;99.90;;;;;;4966210;28;20042;-57
2024/01/03 07:48:43;;;;;;;8.52;1.63;;;9.40;99.90;;;;;;4965307;28;20045;-53
2024/01/03 07:51:10;;;;;;;4.97;2.00;;;9.30;99.90;;;;;;4965763;28;20031;-54
2024/01/03 07:53:37;;;;;;;9.02;2.60;;;9.30;99.90;;;;;;4980490;28;20097;-55
2024/01/03 07:56:08;;;;;;;10.88;2.30;;;9.20;99.90;;;;;;4980804;28;20497;-57
2024/01/03 07:58:33;;;;;;;9.50;2.58;;;9.20;99.90;;;;;;4968319;28;20516;-57
2024/01/03 08:00:59;;;;;;;10.55;2.22;;;9.20;99.90;;;;;;4957794;28;20047;-57
2024/01/03 08:03:24;;;;;;;4.63;2.47;;;9.20;99.90;;;;;;4974287;28;20554;-59
2024/01/03 08:05:50;;;;;;;11.15;2.30;;;9.20;99.90;;;;;;4978869;28;20019;-57
2024/01/03 08:08:15;;;;;;;10.63;1.92;;;9.10;99.90;;;;;;4983285;28;20109;-57
2024/01/03 08:10:41;;;;;;;11.52;1.40;;;9.10;99.90;;;;;;4970665;28;20027;-57
2024/01/03 08:13:06;;;;;;;7.63;1.75;;;9.10;99.90;;;;;;4973271;28;20034;-54
2024/01/03 08:15:33;;;;;;;9.77;1.77;;;9.10;99.90;;;;;;4977483;28;20035;-54
2024/01/03 08:17:58;;;;;;;14.90;2.33;;;9.10;99.90;;;;;;4973767;28;20389;-57
2024/01/03 08:20:24;;;;;;;11.48;2.03;;;9.10;99.90;;;;;;4980106;28;20034;-56
2024/01/03 08:22:49;;;;;;;13.27;3.42;;;9.10;99.90;;;;;;4975702;28;20042;-56
2024/01/03 08:25:15;;;;;;;24.63;13.07;;;9.20;99.90;;;;;;4970446;28;20027;-54
2024/01/03 08:27:41;;;;;;;15.27;4.47;;;9.30;99.90;;;;;;4969755;28;20030;-56
2024/01/03 08:30:07;;;;;;;16.58;5.05;;;9.40;99.90;;;;;;4974834;28;20400;-57
2024/01/03 08:32:36;;;;;;;15.05;5.20;;;9.50;99.90;;;;;;4964406;28;20081;-55
2024/01/03 08:35:01;;;;;;;11.15;2.67;;;9.50;99.90;;;;;;4976210;28;20030;-53
2024/01/03 08:37:28;;;;;;;17.25;3.92;;;9.50;99.90;;;;;;4973734;28;20571;-52
2024/01/03 08:39:53;;;;;;;10.02;2.95;;;9.50;99.90;;;;;;4956502;28;20464;-55
2024/01/03 08:42:19;;;;;;;8.82;1.92;;;9.60;99.90;;;;;;4983120;28;20050;-58
2024/01/03 08:44:45;;;;;;;8.80;1.90;;;9.60;99.90;;;;;;4970332;28;20488;-54
2024/01/03 08:47:13;;;;;;;11.45;1.45;;;9.60;99.90;;;;;;4978543;28;20038;-57
2024/01/03 08:49:38;;;;;;;9.23;2.13;;;9.70;99.90;;;;;;4978958;28;20134;-53
2024/01/03 08:52:04;;;;;;;12.27;2.47;;;9.80;99.90;;;;;;4982316;28;20101;-54
2024/01/03 08:54:30;;;;;;;9.82;1.77;;;9.80;99.90;;;;;;4980256;28;20393;-53
2024/01/03 08:56:55;;;;;;;11.18;2.60;;;9.80;99.90;;;;;;4971948;28;20109;-56
2024/01/03 08:59:21;;;;;;;5.03;1.42;;;9.80;99.90;;;;;;4961463;28;20070;-57
2024/01/03 09:01:51;;;;;;;4.60;1.25;;;9.80;99.90;;;;;;4956379;28;20596;-52
2024/01/03 09:04:17;;;;;;;7.97;2.10;;;9.70;99.90;;;;;;4982583;28;20236;-54
2024/01/03 09:06:42;;;;;;;9.95;1.40;;;9.60;99.90;;;;;;4978528;28;20503;-52
2024/01/03 09:09:08;;;;;;;8.43;1.42;;;9.50;99.90;;;;;;4974367;28;20022;-55
2024/01/03 09:11:33;;;;;;;5.97;1.58;;;9.40;99.90;;;;;;4972010;28;20026;-57
2024/01/03 09:13:59;;;;;;;11.02;1.42;;;9.30;99.90;;;;;;4970290;28;20034;-54
2024/01/03 09:16:30;;;;;;;4.35;1.38;;;9.40;99.90;;;;;;4979810;28;20053;-54
2024/01/03 09:18:56;;;;;;;7.18;2.13;;;9.30;99.90;;;;;;4974893;28;20034;-57
2024/01/03 09:21:21;;;;;;;9.02;2.33;;;9.30;99.90;;;;;;4984447;28;20026;-53
2024/01/03 09:23:47;;;;;;;6.60;1.35;;;9.30;99.90;;;;;;4974762;28;20035;-56
2024/01/03 09:26:15;;;;;;;10.93;1.85;;;9.30;99.90;;;;;;4981430;28;20109;-57
2024/01/03 09:28:41;;;;;;;8.68;2.22;;;9.30;99.90;;;;;;4978305;28;20035;-56
2024/01/03 09:31:07;;;;;;;4.55;1.70;;;9.40;99.90;;;;;;4976327;28;20026;-54
2024/01/03 09:33:33;;;;;;;6.13;1.67;;;9.40;99.90;;;;;;4984111;28;20030;-57
2024/01/03 09:35:59;;;;;;;8.45;1.25;;;9.40;99.90;;;;;;4979494;28;20563;-56
2024/01/03 09:38:26;;;;;;;7.50;1.20;;;9.40;99.90;;;;;;4982742;28;20126;-57
2024/01/03 09:40:51;;;;;;;7.63;1.67;;;9.40;99.90;;;;;;4972626;28;20101;-55
2024/01/03 09:43:19;;;;;;;4.70;1.83;;;9.40;99.90;;;;;;4988180;28;20030;-56
2024/01/03 09:45:45;;;;;;;10.85;3.17;;;9.40;99.90;;;;;;4980442;28;20026;-55
2024/01/03 09:48:11;;;;;;;13.02;2.75;;;9.60;99.90;;;;;;4979009;28;20027;-58
2024/01/03 09:50:38;;;;;;;14.38;1.17;;;9.60;99.90;;;;;;4969276;28;20115;-56
2024/01/03 09:53:08;;;;;;;11.07;2.42;;;9.70;99.90;;;;;;4980017;28;20547;-57
2024/01/03 09:55:35;;;;;;;6.57;1.42;;;9.80;99.90;;;;;;4967671;28;20027;-56
2024/01/03 09:58:01;;;;;;;7.90;0.98;;;10.00;99.90;;;;;;4981014;28;20031;-56
2024/01/03 10:00:30;;;;;;;8.10;2.13;;;10.10;99.90;;;;;;4957008;28;20405;-58
2024/01/03 10:03:03;;;;;;;8.68;1.85;;;10.10;99.90;;;;;;4980710;28;20071;-57
2024/01/03 10:05:29;;;;;;;4.38;1.33;;;10.20;99.90;;;;;;4985774;28;20065;-58
2024/01/03 10:07:55;;;;;;;13.57;1.73;;;10.20;99.90;;;;;;4981692;28;20039;-55
2024/01/03 10:10:34;;;;;;;9.05;2.28;;;10.30;99.90;;;;;;4974819;28;20057;-57
2024/01/03 10:13:17;;;;;;;10.68;2.20;;;10.40;99.90;;;;;;4973242;28;20466;-54
2024/01/03 10:15:44;;;;;;;15.05;3.53;;;10.40;99.90;;;;;;4975535;28;20059;-59
2024/01/03 10:18:11;;;;;;;12.65;2.15;;;10.40;99.90;;;;;;4980198;28;20030;-53
2024/01/03 10:20:37;;;;;;;12.25;1.90;;;10.40;99.90;;;;;;4986325;28;20142;-58
2024/01/03 10:23:05;;;;;;;13.75;3.70;;;10.50;99.90;;;;;;4982663;28;20585;-57
2024/01/03 10:25:30;;;;;;;21.98;3.35;;;10.50;99.90;;;;;;4989398;28;20028;-57
2024/01/03 10:28:03;;;;;;;18.80;2.60;;;10.50;99.90;;;;;;4980570;28;20388;-54
2024/01/03 10:30:30;;;;;;;8.43;1.60;;;10.50;99.90;;;;;;4981615;28;20031;-56
2024/01/03 10:33:02;;;;;;;15.20;3.13;;;10.60;99.90;;;;;;4985580;28;20457;-58
2024/01/03 10:35:30;;;;;;;16.90;3.20;;;10.50;99.90;;;;;;4968457;28;20030;-54
2024/01/03 10:38:05;;;;;;;14.55;2.60;;;10.50;99.90;;;;;;4980533;28;20035;-58
2024/01/03 10:40:32;;;;;;;12.35;2.63;;;10.50;99.90;;;;;;4972477;28;20022;-56
2024/01/03 10:42:59;;;;;;;12.73;1.70;;;10.50;99.90;;;;;;4977386;28;20077;-55
2024/01/03 10:45:25;;;;;;;9.40;1.85;;;10.40;99.90;;;;;;4977591;28;20029;-56
2024/01/03 10:47:52;;;;;;;9.18;2.55;;;10.40;99.90;;;;;;4984482;28;20489;-54
2024/01/03 10:50:18;;;;;;;9.98;2.33;;;10.40;99.90;;;;;;4980089;28;20026;-56
2024/01/03 10:52:45;;;;;;;10.48;2.20;;;10.40;99.90;;;;;;4980122;28;20031;-59
2024/01/03 10:55:22;;;;;;;13.60;2.80;;;10.40;99.90;;;;;;4984566;28;20092;-57
2024/01/03 10:57:58;;;;;;;9.30;2.38;;;10.50;99.90;;;;;;4979989;28;20082;-54
2024/01/03 11:00:30;;;;;;;12.02;1.98;;;10.50;99.90;;;;;;4968061;28;20059;-57
2024/01/03 11:03:05;;;;;;;9.85;2.58;;;10.50;99.90;;;;;;4966865;28;20085;-56
2024/01/03 11:05:43;;;;;;;8.95;1.25;;;10.60;99.90;;;;;;4972993;28;20462;-57
2024/01/03 11:08:14;;;;;;;8.13;1.60;;;10.60;99.90;;;;;;4984040;28;20041;-58
2024/01/03 11:10:47;;;;;;;7.05;1.23;;;10.60;99.90;;;;;;4971637;28;20027;-57
2024/01/03 11:13:30;;;;;;;16.10;1.75;;;10.60;99.90;;;;;;4967739;28;20026;-57
2024/01/03 11:15:58;;;;;;;7.70;1.95;;;10.60;99.90;;;;;;4977965;28;20031;-58
2024/01/03 11:18:41;;;;;;;7.78;1.98;;;10.60;99.90;;;;;;4978204;28;20492;-56
2024/01/03 11:21:25;;;;;;;11.43;2.35;;;10.60;99.90;;;;;;4978555;28;20057;-58
2024/01/03 11:23:50;;;;;;;6.38;1.20;;;10.60;99.90;;;;;;4977420;28;20404;-55
2024/01/03 11:26:16;;;;;;;5.95;1.67;;;10.60;99.90;;;;;;4974947;28;20026;-57
2024/01/03 11:28:48;;;;;;;10.80;1.92;;;10.60;99.90;;;;;;4982715;28;20041;-57
2024/01/03 11:31:34;;;;;;;9.70;1.17;;;10.70;99.90;;;;;;4968565;28;20089;-57
2024/01/03 11:34:00;;;;;;;9.10;1.70;;;10.80;99.90;;;;;;4974216;28;20027;-56
2024/01/03 11:36:44;;;;;;;11.90;2.20;;;10.70;99.90;;;;;;4974559;28;20473;-58
2024/01/03 11:39:36;;;;;;;7.90;1.67;;;10.70;99.90;;;;;;4966328;28;20039;-58
2024/01/03 11:42:02;;;;;;;7.35;1.42;;;10.70;99.90;;;;;;4966354;28;20038;-59
2024/01/03 11:44:28;;;;;;;8.10;1.63;;;10.70;99.90;;;;;;4974684;28;20481;-57
2024/01/03 11:47:00;;;;;;;9.30;1.73;;;10.80;99.90;;;;;;4966600;28;20029;-57
2024/01/03 11:49:25;;;;;;;5.32;1.38;;;10.90;99.90;;;;;;4971325;28;20546;-57
2024/01/03 11:51:52;;;;;;;5.53;1.30;;;10.90;99.90;;;;;;4974895;28;20035;-57
2024/01/03 11:54:17;;;;;;;9.23;2.28;;;10.90;99.90;;;;;;4979257;28;20054;-57
2024/01/03 11:56:43;;;;;;;7.00;1.85;;;10.90;99.90;;;;;;4974792;28;20073;-57
2024/01/03 11:59:09;;;;;;;8.68;1.88;;;10.90;99.90;;;;;;4974866;28;20030;-57
2024/01/03 12:01:35;;;;;;;9.68;1.45;;;11.00;99.90;;;;;;4958342;28;20513;-56
2024/01/03 12:04:10;;;;;;;8.25;1.58;;;11.10;99.90;;;;;;4976956;28;20075;-57
2024/01/03 12:06:36;;;;;;;5.40;1.20;;;11.10;99.90;;;;;;4984740;28;20027;-57
2024/01/03 12:09:02;;;;;;;11.80;1.55;;;11.10;99.90;;;;;;4984723;28;20493;-57
2024/01/03 12:11:29;;;;;;;7.18;1.90;;;11.10;99.90;;;;;;4983278;28;20029;-55
2024/01/03 12:13:55;;;;;;;7.03;1.42;;;11.10;99.90;;;;;;4990145;28;20066;-55
2024/01/03 12:16:20;;;;;;;6.45;1.20;;;11.00;99.90;;;;;;4983615;28;20061;-53
2024/01/03 12:18:51;;;;;;;10.63;1.63;;;11.00;99.90;;;;;;4989941;28;20485;-57
2024/01/03 12:21:17;;;;;;;4.78;1.95;;;11.10;99.90;;;;;;4981134;28;20023;-57
2024/01/03 12:24:01;;;;;;;8.57;1.83;;;11.20;99.90;;;;;;4979387;28;20039;-59
2024/01/03 12:26:27;;;;;;;7.45;1.92;;;11.20;99.90;;;;;;4982859;28;20023;-55
2024/01/03 12:29:03;;;;;;;12.65;2.42;;;11.30;99.90;;;;;;4979888;28;20460;-59
2024/01/03 12:31:29;;;;;;;14.82;2.67;;;11.40;99.90;;;;;;4979748;28;20472;-55
2024/01/03 12:34:06;;;;;;;9.60;2.20;;;11.40;99.90;;;;;;4987973;28;20037;-57
2024/01/03 12:36:32;;;;;;;9.65;2.45;;;11.40;99.90;;;;;;4986852;28;20105;-56
2024/01/03 12:38:59;;;;;;;8.52;2.65;;;11.40;99.90;;;;;;4983690;28;20671;-57
2024/01/03 12:41:24;;;;;;;11.35;2.00;;;11.40;99.90;;;;;;4974390;28;20022;-58
2024/01/03 12:43:50;;;;;;;6.82;1.38;;;11.40;99.90;;;;;;4982489;28;20541;-57
2024/01/03 12:46:16;;;;;;;8.48;2.95;;;11.40;99.90;;;;;;4983867;28;20030;-56
2024/01/03 12:48:41;;;;;;;10.23;2.55;;;11.50;99.90;;;;;;4983233;28;20038;-57